sensor_id;sensor_type;location;lat;lon;timestamp;temperature;humidity
53643;DHT22;39546;45.534;12.048;2022-08-24T00:00:20;26.00;67.40
53643;DHT22;39546;45.534;12.048;2022-08-24T00:06:23;26.00;67.60
53643;DHT22;39546;45.534;12.048;2022-08-24T00:12:27;25.90;67.70
53643;DHT22;39546;45.534;12.048;2022-08-24T00:18:29;25.80;67.90
53643;DHT22;39546;45.534;12.048;2022-08-24T00:24:31;25.80;68.00
53643;DHT22;39546;45.534;12.048;2022-08-24T00:30:33;25.70;68.10
53643;DHT22;39546;45.534;12.048;2022-08-24T00:36:36;25.70;68.10
53643;DHT22;39546;45.534;12.048;2022-08-24T00:42:38;25.60;68.20
53643;DHT22;39546;45.534;12.048;2022-08-24T00:48:44;25.70;68.30
53643;DHT22;39546;45.534;12.048;2022-08-24T00:54:52;25.70;68.20
53643;DHT22;39546;45.534;12.048;2022-08-24T01:01:00;25.70;68.30
53643;DHT22;39546;45.534;12.048;2022-08-24T01:07:03;25.50;68.60
53643;DHT22;39546;45.534;12.048;2022-08-24T01:13:07;25.50;68.50
53643;DHT22;39546;45.534;12.048;2022-08-24T01:19:28;25.50;68.50
53643;DHT22;39546;45.534;12.048;2022-08-24T01:25:35;25.50;68.50
53643;DHT22;39546;45.534;12.048;2022-08-24T01:31:39;25.40;68.70
53643;DHT22;39546;45.534;12.048;2022-08-24T01:37:41;25.30;68.90
53643;DHT22;39546;45.534;12.048;2022-08-24T01:43:44;25.30;69.00
53643;DHT22;39546;45.534;12.048;2022-08-24T01:49:47;25.20;69.10
53643;DHT22;39546;45.534;12.048;2022-08-24T01:55:49;25.20;69.10
53643;DHT22;39546;45.534;12.048;2022-08-24T02:02:05;25.30;68.90
53643;DHT22;39546;45.534;12.048;2022-08-24T02:08:08;25.30;68.90
53643;DHT22;39546;45.534;12.048;2022-08-24T02:14:10;25.30;68.90
53643;DHT22;39546;45.534;12.048;2022-08-24T02:20:12;25.30;68.90
53643;DHT22;39546;45.534;12.048;2022-08-24T02:26:14;25.20;69.00
53643;DHT22;39546;45.534;12.048;2022-08-24T02:32:16;25.20;69.10
53643;DHT22;39546;45.534;12.048;2022-08-24T02:38:18;25.10;69.30
53643;DHT22;39546;45.534;12.048;2022-08-24T02:44:21;25.10;69.50
53643;DHT22;39546;45.534;12.048;2022-08-24T02:50:23;25.10;70.00
53643;DHT22;39546;45.534;12.048;2022-08-24T02:56:28;25.00;70.00
53643;DHT22;39546;45.534;12.048;2022-08-24T03:02:34;25.00;70.00
53643;DHT22;39546;45.534;12.048;2022-08-24T03:08:37;24.90;70.00
53643;DHT22;39546;45.534;12.048;2022-08-24T03:14:40;24.90;69.90
53643;DHT22;39546;45.534;12.048;2022-08-24T03:20:43;24.90;69.80
53643;DHT22;39546;45.534;12.048;2022-08-24T03:26:46;24.80;69.80
53643;DHT22;39546;45.534;12.048;2022-08-24T03:32:48;24.80;69.90
53643;DHT22;39546;45.534;12.048;2022-08-24T03:38:51;24.60;70.10
53643;DHT22;39546;45.534;12.048;2022-08-24T03:44:53;24.50;70.30
53643;DHT22;39546;45.534;12.048;2022-08-24T03:50:56;24.50;70.40
53643;DHT22;39546;45.534;12.048;2022-08-24T03:56:58;24.40;70.70
53643;DHT22;39546;45.534;12.048;2022-08-24T04:03:00;24.40;70.60
53643;DHT22;39546;45.534;12.048;2022-08-24T04:09:04;24.30;70.70
53643;DHT22;39546;45.534;12.048;2022-08-24T04:15:07;24.30;70.90
53643;DHT22;39546;45.534;12.048;2022-08-24T04:21:42;24.00;71.20
53643;DHT22;39546;45.534;12.048;2022-08-24T04:27:45;23.90;71.40
53643;DHT22;39546;45.534;12.048;2022-08-24T04:33:48;23.80;71.70
53643;DHT22;39546;45.534;12.048;2022-08-24T04:39:53;23.80;71.60
53643;DHT22;39546;45.534;12.048;2022-08-24T04:45:55;24.00;71.60
53643;DHT22;39546;45.534;12.048;2022-08-24T04:51:58;24.10;71.30
53643;DHT22;39546;45.534;12.048;2022-08-24T04:58:00;24.20;71.10
53643;DHT22;39546;45.534;12.048;2022-08-24T05:04:03;24.30;71.10
53643;DHT22;39546;45.534;12.048;2022-08-24T05:10:07;24.30;70.90
53643;DHT22;39546;45.534;12.048;2022-08-24T05:16:12;24.20;71.00
53643;DHT22;39546;45.534;12.048;2022-08-24T05:22:16;24.30;71.00
53643;DHT22;39546;45.534;12.048;2022-08-24T05:28:19;24.30;71.10
53643;DHT22;39546;45.534;12.048;2022-08-24T05:34:23;24.30;71.20
53643;DHT22;39546;45.534;12.048;2022-08-24T05:40:26;24.40;71.20
53643;DHT22;39546;45.534;12.048;2022-08-24T05:46:29;24.50;71.00
53643;DHT22;39546;45.534;12.048;2022-08-24T05:52:34;24.60;71.00
53643;DHT22;39546;45.534;12.048;2022-08-24T05:58:37;24.70;71.00
53643;DHT22;39546;45.534;12.048;2022-08-24T06:04:40;24.70;70.80
53643;DHT22;39546;45.534;12.048;2022-08-24T06:10:45;24.70;70.80
53643;DHT22;39546;45.534;12.048;2022-08-24T06:16:48;24.70;70.80
53643;DHT22;39546;45.534;12.048;2022-08-24T06:22:50;24.70;70.60
53643;DHT22;39546;45.534;12.048;2022-08-24T06:28:53;24.80;70.70
53643;DHT22;39546;45.534;12.048;2022-08-24T06:34:56;24.90;70.60
53643;DHT22;39546;45.534;12.048;2022-08-24T06:40:59;25.10;70.40
53643;DHT22;39546;45.534;12.048;2022-08-24T06:47:01;25.20;70.10
53643;DHT22;39546;45.534;12.048;2022-08-24T06:53:05;25.30;70.00
53643;DHT22;39546;45.534;12.048;2022-08-24T06:59:07;25.40;69.60
53643;DHT22;39546;45.534;12.048;2022-08-24T07:05:10;25.50;69.40
53643;DHT22;39546;45.534;12.048;2022-08-24T07:11:16;25.60;69.30
53643;DHT22;39546;45.534;12.048;2022-08-24T07:17:19;25.70;69.00
53643;DHT22;39546;45.534;12.048;2022-08-24T07:23:22;25.80;68.90
53643;DHT22;39546;45.534;12.048;2022-08-24T07:29:25;25.80;68.80
53643;DHT22;39546;45.534;12.048;2022-08-24T07:35:29;25.80;68.70
53643;DHT22;39546;45.534;12.048;2022-08-24T07:41:37;25.90;68.90
53643;DHT22;39546;45.534;12.048;2022-08-24T07:47:40;26.00;68.60
53643;DHT22;39546;45.534;12.048;2022-08-24T07:53:45;26.10;68.20
53643;DHT22;39546;45.534;12.048;2022-08-24T07:59:48;26.20;68.00
53643;DHT22;39546;45.534;12.048;2022-08-24T08:05:55;26.30;67.60
53643;DHT22;39546;45.534;12.048;2022-08-24T08:11:58;26.30;67.30
53643;DHT22;39546;45.534;12.048;2022-08-24T08:18:01;26.40;67.10
53643;DHT22;39546;45.534;12.048;2022-08-24T08:24:14;26.50;67.10
53643;DHT22;39546;45.534;12.048;2022-08-24T08:30:17;26.40;66.60
53643;DHT22;39546;45.534;12.048;2022-08-24T08:36:20;26.60;66.50
53643;DHT22;39546;45.534;12.048;2022-08-24T09:33:06;27.30;63.00
53643;DHT22;39546;45.534;12.048;2022-08-24T09:46:18;27.40;62.30
53643;DHT22;39546;45.534;12.048;2022-08-24T10:57:35;29.20;57.60
53643;DHT22;39546;45.534;12.048;2022-08-24T11:03:55;29.30;56.80
53643;DHT22;39546;45.534;12.048;2022-08-24T11:10:08;29.50;56.30
53643;DHT22;39546;45.534;12.048;2022-08-24T11:16:22;29.70;55.00
53643;DHT22;39546;45.534;12.048;2022-08-24T11:23:03;29.80;54.40
53643;DHT22;39546;45.534;12.048;2022-08-24T11:30:22;30.00;55.00
53643;DHT22;39546;45.534;12.048;2022-08-24T11:35:52;30.30;54.20
53643;DHT22;39546;45.534;12.048;2022-08-24T11:48:33;30.90;53.10
53643;DHT22;39546;45.534;12.048;2022-08-24T11:54:51;31.10;52.20
53643;DHT22;39546;45.534;12.048;2022-08-24T12:07:48;31.30;51.00
53643;DHT22;39546;45.534;12.048;2022-08-24T12:20:04;31.30;50.40
53643;DHT22;39546;45.534;12.048;2022-08-24T12:32:29;30.90;50.00
53643;DHT22;39546;45.534;12.048;2022-08-24T12:38:42;30.80;50.30
53643;DHT22;39546;45.534;12.048;2022-08-24T12:44:50;30.80;49.80
53643;DHT22;39546;45.534;12.048;2022-08-24T13:04:12;30.30;49.90
53643;DHT22;39546;45.534;12.048;2022-08-24T13:23:04;30.40;49.80
53643;DHT22;39546;45.534;12.048;2022-08-24T13:29:08;30.40;49.90
53643;DHT22;39546;45.534;12.048;2022-08-24T13:41:51;30.70;49.80
53643;DHT22;39546;45.534;12.048;2022-08-24T13:48:11;30.60;49.80
53643;DHT22;39546;45.534;12.048;2022-08-24T13:54:33;30.70;49.90
53643;DHT22;39546;45.534;12.048;2022-08-24T14:00:39;30.80;49.70
53643;DHT22;39546;45.534;12.048;2022-08-24T14:32:38;31.00;49.20
53643;DHT22;39546;45.534;12.048;2022-08-24T14:38:57;31.00;49.10
53643;DHT22;39546;45.534;12.048;2022-08-24T14:58:26;31.30;49.20
53643;DHT22;39546;45.534;12.048;2022-08-24T15:04:42;31.30;48.90
53643;DHT22;39546;45.534;12.048;2022-08-24T15:16:57;31.50;48.20
53643;DHT22;39546;45.534;12.048;2022-08-24T15:29:35;31.50;47.20
53643;DHT22;39546;45.534;12.048;2022-08-24T15:35:50;31.60;47.40
53643;DHT22;39546;45.534;12.048;2022-08-24T15:41:57;31.80;47.50
53643;DHT22;39546;45.534;12.048;2022-08-24T15:48:01;32.00;47.10
53643;DHT22;39546;45.534;12.048;2022-08-24T16:00:22;31.90;46.90
53643;DHT22;39546;45.534;12.048;2022-08-24T16:06:45;32.10;46.80
53643;DHT22;39546;45.534;12.048;2022-08-24T16:12:48;32.10;46.90
53643;DHT22;39546;45.534;12.048;2022-08-24T16:19:00;32.20;46.60
53643;DHT22;39546;45.534;12.048;2022-08-24T16:25:24;32.10;46.50
53643;DHT22;39546;45.534;12.048;2022-08-24T16:31:44;32.10;46.40
53643;DHT22;39546;45.534;12.048;2022-08-24T16:37:47;32.00;46.40
53643;DHT22;39546;45.534;12.048;2022-08-24T16:43:50;32.00;46.60
53643;DHT22;39546;45.534;12.048;2022-08-24T16:49:53;32.10;46.70
53643;DHT22;39546;45.534;12.048;2022-08-24T16:56:14;32.10;46.40
53643;DHT22;39546;45.534;12.048;2022-08-24T17:02:38;32.40;46.20
53643;DHT22;39546;45.534;12.048;2022-08-24T17:08:40;33.60;44.70
53643;DHT22;39546;45.534;12.048;2022-08-24T17:14:42;33.40;45.20
53643;DHT22;39546;45.534;12.048;2022-08-24T17:20:45;32.90;46.10
53643;DHT22;39546;45.534;12.048;2022-08-24T17:26:48;32.40;47.00
53643;DHT22;39546;45.534;12.048;2022-08-24T17:32:52;32.00;47.70
53643;DHT22;39546;45.534;12.048;2022-08-24T17:38:55;31.80;47.90
53643;DHT22;39546;45.534;12.048;2022-08-24T17:44:57;31.70;48.10
53643;DHT22;39546;45.534;12.048;2022-08-24T17:50:59;31.30;48.80
53643;DHT22;39546;45.534;12.048;2022-08-24T17:57:02;31.00;49.30
53643;DHT22;39546;45.534;12.048;2022-08-24T18:03:04;30.70;49.70
53643;DHT22;39546;45.534;12.048;2022-08-24T18:09:12;30.50;50.00
53643;DHT22;39546;45.534;12.048;2022-08-24T18:15:16;30.30;50.30
53643;DHT22;39546;45.534;12.048;2022-08-24T18:21:23;30.20;50.60
53643;DHT22;39546;45.534;12.048;2022-08-24T18:27:30;30.00;50.90
53643;DHT22;39546;45.534;12.048;2022-08-24T18:33:33;29.90;51.20
53643;DHT22;39546;45.534;12.048;2022-08-24T18:39:35;29.80;51.40
53643;DHT22;39546;45.534;12.048;2022-08-24T18:45:38;29.70;51.70
53643;DHT22;39546;45.534;12.048;2022-08-24T18:51:40;29.60;52.00
53643;DHT22;39546;45.534;12.048;2022-08-24T18:57:43;29.50;52.20
53643;DHT22;39546;45.534;12.048;2022-08-24T19:03:45;29.30;52.50
53643;DHT22;39546;45.534;12.048;2022-08-24T19:09:47;29.30;52.80
53643;DHT22;39546;45.534;12.048;2022-08-24T19:15:51;29.20;53.10
53643;DHT22;39546;45.534;12.048;2022-08-24T19:21:53;29.10;53.40
53643;DHT22;39546;45.534;12.048;2022-08-24T19:27:56;29.00;53.60
53643;DHT22;39546;45.534;12.048;2022-08-24T19:34:00;28.90;53.80
53643;DHT22;39546;45.534;12.048;2022-08-24T19:40:03;28.80;54.10
53643;DHT22;39546;45.534;12.048;2022-08-24T19:46:06;28.80;54.30
53643;DHT22;39546;45.534;12.048;2022-08-24T19:52:09;28.70;54.80
53643;DHT22;39546;45.534;12.048;2022-08-24T19:58:21;28.60;55.60
53643;DHT22;39546;45.534;12.048;2022-08-24T20:04:24;28.50;55.80
53643;DHT22;39546;45.534;12.048;2022-08-24T20:10:27;28.50;56.20
53643;DHT22;39546;45.534;12.048;2022-08-24T20:16:38;28.40;56.30
53643;DHT22;39546;45.534;12.048;2022-08-24T20:22:43;28.30;56.50
53643;DHT22;39546;45.534;12.048;2022-08-24T20:28:48;28.20;57.20
53643;DHT22;39546;45.534;12.048;2022-08-24T20:34:50;28.20;57.70
53643;DHT22;39546;45.534;12.048;2022-08-24T20:40:53;28.10;57.80
53643;DHT22;39546;45.534;12.048;2022-08-24T20:46:56;28.00;57.90
53643;DHT22;39546;45.534;12.048;2022-08-24T20:52:59;27.90;58.30
53643;DHT22;39546;45.534;12.048;2022-08-24T20:59:07;27.90;58.50
53643;DHT22;39546;45.534;12.048;2022-08-24T21:05:27;27.80;58.70
53643;DHT22;39546;45.534;12.048;2022-08-24T21:11:29;27.80;59.00
53643;DHT22;39546;45.534;12.048;2022-08-24T21:17:33;27.70;59.90
53643;DHT22;39546;45.534;12.048;2022-08-24T21:23:35;27.70;60.20
53643;DHT22;39546;45.534;12.048;2022-08-24T21:29:38;27.70;60.50
53643;DHT22;39546;45.534;12.048;2022-08-24T21:35:39;27.60;60.60
53643;DHT22;39546;45.534;12.048;2022-08-24T21:41:43;27.60;60.70
53643;DHT22;39546;45.534;12.048;2022-08-24T21:47:45;27.50;60.80
53643;DHT22;39546;45.534;12.048;2022-08-24T21:53:47;27.40;61.00
53643;DHT22;39546;45.534;12.048;2022-08-24T21:59:49;27.30;61.30
53643;DHT22;39546;45.534;12.048;2022-08-24T22:05:51;27.30;61.40
53643;DHT22;39546;45.534;12.048;2022-08-24T22:11:54;27.30;61.70
53643;DHT22;39546;45.534;12.048;2022-08-24T22:17:56;27.20;61.70
53643;DHT22;39546;45.534;12.048;2022-08-24T22:23:58;27.10;61.90
53643;DHT22;39546;45.534;12.048;2022-08-24T22:30:10;27.10;62.10
53643;DHT22;39546;45.534;12.048;2022-08-24T22:36:14;27.10;62.30
53643;DHT22;39546;45.534;12.048;2022-08-24T22:42:16;26.90;62.50
53643;DHT22;39546;45.534;12.048;2022-08-24T22:48:19;27.00;62.70
53643;DHT22;39546;45.534;12.048;2022-08-24T22:54:22;27.00;63.00
53643;DHT22;39546;45.534;12.048;2022-08-24T23:00:24;26.90;63.00
53643;DHT22;39546;45.534;12.048;2022-08-24T23:06:27;26.90;63.10
53643;DHT22;39546;45.534;12.048;2022-08-24T23:12:29;26.80;63.40
53643;DHT22;39546;45.534;12.048;2022-08-24T23:18:33;26.70;63.60
53643;DHT22;39546;45.534;12.048;2022-08-24T23:24:54;26.70;63.60
53643;DHT22;39546;45.534;12.048;2022-08-24T23:30:56;26.60;63.80
53643;DHT22;39546;45.534;12.048;2022-08-24T23:37:00;26.50;64.00
53643;DHT22;39546;45.534;12.048;2022-08-24T23:43:03;26.50;64.70
53643;DHT22;39546;45.534;12.048;2022-08-24T23:49:06;26.40;64.80
53643;DHT22;39546;45.534;12.048;2022-08-24T23:55:08;26.40;64.80
